createdAt,value
2023-01-20T00:29:31.286Z,0.13
2023-01-20T00:33:43.592Z,0.10
2023-01-20T00:36:10.255Z,0.13
2023-01-20T00:38:39.425Z,0.20
2023-01-20T00:41:07.509Z,0.22
2023-01-20T00:43:35.165Z,0.10
2023-01-20T00:46:03.184Z,0.20
2023-01-20T00:48:30.278Z,0.17
2023-01-20T00:50:57.756Z,0.20
2023-01-20T00:53:28.833Z,0.10
2023-01-20T00:55:56.977Z,0.10
2023-01-20T00:58:24.569Z,0.25
2023-01-20T01:00:53.014Z,0.15
2023-01-20T01:03:21.711Z,0.15
2023-01-20T01:05:48.843Z,0.15
2023-01-20T01:09:03.152Z,0.10
2023-01-20T01:11:30.258Z,0.20
2023-01-20T01:13:57.800Z,0.00
2023-01-20T01:16:24.868Z,0.10
2023-01-20T01:18:58.110Z,0.10
2023-01-20T01:21:33.144Z,0.10
2023-01-20T01:24:02.530Z,0.30
2023-01-20T01:26:32.406Z,0.10
2023-01-20T01:28:59.421Z,0.30
2023-01-20T01:31:26.719Z,0.25
2023-01-20T01:33:53.951Z,0.30
2023-01-20T01:36:20.980Z,0.30
2023-01-20T01:38:58.550Z,0.20
2023-01-20T01:41:29.691Z,0.20
2023-01-20T01:44:16.139Z,0.10
2023-01-20T01:46:51.446Z,0.30
2023-01-20T01:49:27.237Z,0.40
2023-01-20T01:52:03.524Z,0.45
2023-01-20T01:55:18.586Z,0.25
2023-01-20T01:58:03.052Z,0.35
2023-01-20T02:01:34.373Z,0.10
2023-01-20T02:12:17.802Z,0.88
2023-01-20T02:14:51.832Z,0.40
2023-01-20T02:17:25.127Z,0.40
2023-01-20T02:20:10.351Z,0.30
2023-01-20T02:22:53.144Z,0.40
2023-01-20T02:25:47.044Z,0.38
2023-01-20T02:28:29.841Z,0.40
2023-01-20T02:31:23.278Z,1.10
2023-01-20T02:34:10.025Z,0.60
2023-01-20T02:36:51.822Z,0.38
2023-01-20T02:39:54.367Z,0.40
2023-01-20T02:43:00.033Z,0.45
2023-01-20T02:46:32.019Z,0.40
2023-01-20T02:49:12.495Z,0.60
2023-01-20T02:52:17.220Z,0.50
2023-01-20T02:58:25.677Z,0.32
2023-01-20T03:00:59.126Z,0.57
2023-01-20T03:03:35.161Z,0.40
2023-01-20T03:06:07.398Z,0.60
2023-01-20T03:08:36.799Z,0.82
2023-01-20T03:11:07.016Z,0.30
2023-01-20T03:13:44.985Z,0.20
2023-01-20T03:16:24.492Z,0.35
2023-01-20T03:18:52.694Z,0.32
2023-01-20T03:21:19.696Z,0.10
2023-01-20T03:23:53.751Z,0.10
2023-01-20T03:26:23.251Z,0.20
2023-01-20T03:28:50.854Z,0.22
2023-01-20T03:31:31.635Z,0.05
2023-01-20T03:34:03.438Z,0.10
2023-01-20T03:36:33.182Z,0.30
2023-01-20T03:39:00.985Z,0.10
2023-01-20T03:41:30.955Z,0.10
2023-01-20T03:44:19.666Z,0.05
2023-01-20T03:47:09.898Z,0.00
2023-01-20T03:49:52.947Z,0.10
2023-01-20T03:52:47.869Z,0.05
2023-01-20T03:55:22.990Z,0.00
2023-01-20T03:58:09.435Z,0.08
2023-01-20T04:00:45.335Z,0.20
2023-01-20T04:03:19.576Z,0.10
2023-01-20T04:05:54.317Z,0.30
2023-01-20T04:08:26.658Z,0.13
2023-01-20T04:10:55.983Z,0.10
2023-01-20T04:13:35.939Z,0.20
2023-01-20T04:16:12.543Z,0.20
2023-01-20T04:35:46.246Z,1.80
2023-01-20T04:38:17.076Z,1.83
2023-01-20T04:40:46.759Z,1.77
2023-01-20T04:43:18.142Z,1.67
2023-01-20T04:45:48.344Z,1.10
2023-01-20T04:48:15.358Z,0.77
2023-01-20T04:50:42.535Z,1.35
2023-01-20T04:53:16.976Z,2.00
2023-01-20T04:55:43.909Z,2.40
2023-01-20T04:58:11.020Z,2.00
2023-01-20T05:00:38.367Z,2.30
2023-01-20T05:03:06.406Z,2.70
2023-01-20T05:05:35.721Z,2.00
2023-01-20T05:08:05.042Z,1.00
2023-01-20T05:10:35.437Z,1.02
2023-01-20T05:13:03.598Z,1.02
2023-01-20T05:15:33.197Z,0.98
2023-01-20T05:18:00.278Z,0.57
2023-01-20T05:20:31.101Z,0.95
2023-01-20T05:23:01.217Z,0.68
2023-01-20T05:25:28.639Z,0.80
2023-01-20T05:27:55.513Z,0.20
2023-01-20T05:30:22.473Z,0.57
2023-01-20T05:32:50.574Z,0.75
2023-01-20T05:35:17.596Z,0.60
2023-01-20T05:37:45.188Z,0.80
2023-01-20T05:40:13.001Z,1.20
2023-01-20T05:42:40.430Z,1.40
2023-01-20T05:45:09.435Z,1.05
2023-01-20T05:47:36.631Z,1.70
2023-01-20T05:50:04.856Z,1.30
2023-01-20T05:52:32.105Z,0.55
2023-01-20T05:54:59.151Z,0.60
2023-01-20T05:57:26.626Z,0.80
2023-01-20T05:59:55.896Z,0.60
2023-01-20T06:02:22.754Z,0.30
2023-01-20T06:04:52.138Z,0.57
2023-01-20T06:07:18.925Z,0.52
2023-01-20T06:09:45.990Z,1.33
2023-01-20T06:12:12.757Z,2.13
2023-01-20T06:14:39.790Z,3.00
2023-01-20T06:17:06.739Z,2.72
2023-01-20T06:19:33.518Z,2.00
2023-01-20T06:22:00.215Z,2.20
2023-01-20T06:24:27.228Z,1.90
2023-01-20T06:27:13.807Z,1.58
2023-01-20T06:35:30.695Z,2.40
2023-01-20T06:38:00.251Z,2.47
2023-01-20T06:40:33.459Z,2.42
2023-01-20T06:43:01.535Z,2.47
2023-01-20T06:45:29.707Z,3.30
2023-01-20T06:47:56.533Z,4.47
2023-01-20T06:50:23.463Z,4.35
2023-01-20T06:52:50.296Z,3.92
2023-01-20T06:55:17.361Z,3.55
2023-01-20T06:57:44.531Z,2.50
2023-01-20T07:00:11.846Z,2.33
2023-01-20T07:02:42.269Z,2.08
2023-01-20T07:05:17.360Z,1.58
2023-01-20T07:08:04.295Z,2.13
2023-01-20T07:10:33.493Z,2.20
2023-01-20T07:13:00.721Z,2.83
2023-01-20T07:15:27.600Z,2.60
2023-01-20T07:17:54.524Z,4.15
2023-01-20T07:20:21.379Z,5.70
2023-01-20T07:22:48.099Z,5.85
2023-01-20T07:25:15.439Z,4.00
2023-01-20T07:27:43.043Z,3.63
2023-01-20T07:30:10.579Z,2.33
2023-01-20T07:32:54.039Z,3.22
2023-01-20T07:35:21.060Z,3.05
2023-01-20T07:37:47.863Z,3.50
2023-01-20T07:40:16.268Z,4.55
2023-01-20T07:42:43.118Z,2.78
2023-01-20T07:45:10.408Z,3.60
2023-01-20T07:47:37.231Z,5.55
2023-01-20T07:50:04.296Z,4.85
2023-01-20T07:52:31.051Z,5.57
2023-01-20T07:54:58.001Z,5.72
2023-01-20T07:57:24.788Z,5.55
2023-01-20T07:59:51.558Z,4.90
2023-01-20T08:02:18.698Z,2.80
2023-01-20T08:04:45.508Z,2.20
2023-01-20T08:07:12.660Z,2.63
2023-01-20T08:09:42.540Z,2.22
2023-01-20T08:12:09.321Z,3.28
2023-01-20T08:14:37.788Z,3.53
2023-01-20T08:17:05.718Z,3.70
2023-01-20T08:19:34.146Z,2.53
2023-01-20T08:22:01.121Z,2.42
2023-01-20T08:24:30.300Z,1.80
2023-01-20T08:26:57.098Z,2.30
2023-01-20T08:32:11.456Z,2.53
2023-01-20T08:34:51.075Z,3.17
2023-01-20T08:37:20.895Z,4.60
2023-01-20T08:39:48.908Z,7.57
2023-01-20T08:42:16.030Z,6.22
2023-01-20T08:44:43.977Z,5.80
2023-01-20T08:47:11.040Z,5.97
2023-01-20T08:49:37.831Z,7.43
2023-01-20T08:52:04.843Z,8.50
2023-01-20T08:54:34.683Z,7.88
2023-01-20T08:57:08.005Z,8.10
2023-01-20T08:59:39.800Z,7.50
2023-01-20T09:02:07.081Z,6.55
2023-01-20T09:04:39.439Z,7.45
2023-01-20T09:07:06.802Z,6.82
2023-01-20T09:09:37.035Z,7.70
2023-01-20T09:12:06.051Z,8.90
2023-01-20T09:14:39.554Z,18.70
2023-01-20T09:17:06.611Z,11.18
2023-01-20T09:19:33.376Z,11.23
2023-01-20T09:22:00.154Z,9.90
2023-01-20T09:24:27.068Z,9.90
2023-01-20T09:26:54.031Z,10.70
2023-01-20T09:29:21.594Z,15.07
2023-01-20T09:31:58.350Z,15.05
2023-01-20T09:34:27.460Z,13.77
2023-01-20T09:36:58.030Z,10.73
2023-01-20T09:39:49.903Z,5.43
2023-01-20T09:43:02.190Z,5.57
2023-01-20T09:45:39.044Z,4.53
2023-01-20T09:48:35.912Z,6.03
2023-01-20T09:51:26.529Z,3.08
2023-01-20T09:54:15.920Z,3.35
2023-01-20T09:56:48.021Z,5.05
2023-01-20T09:59:35.906Z,4.30
2023-01-20T10:02:12.547Z,2.15
2023-01-20T10:04:46.351Z,2.15
2023-01-20T10:07:57.612Z,2.35
2023-01-20T10:14:12.945Z,1.73
2023-01-20T10:17:18.352Z,1.52
2023-01-20T10:19:53.462Z,1.23
2023-01-20T10:22:31.291Z,1.75
2023-01-20T10:25:08.999Z,0.57
2023-01-20T10:27:42.726Z,0.82
2023-01-20T10:30:15.636Z,0.85
2023-01-20T10:32:52.778Z,1.30
2023-01-20T10:35:24.348Z,2.35
2023-01-20T10:37:53.092Z,2.83
2023-01-20T10:40:44.925Z,2.30
2023-01-20T10:43:14.357Z,0.60
2023-01-20T10:46:05.775Z,0.60
2023-01-20T10:48:44.764Z,0.70
2023-01-20T10:51:33.038Z,1.48
2023-01-20T10:54:05.948Z,0.70
2023-01-20T10:56:42.943Z,0.75
2023-01-20T10:59:18.158Z,1.20
2023-01-20T11:01:59.414Z,1.40
2023-01-20T11:04:29.919Z,4.32
2023-01-20T11:06:59.771Z,4.15
2023-01-20T11:09:41.941Z,3.90
2023-01-20T11:12:22.187Z,3.80
2023-01-20T11:14:50.551Z,2.53
2023-01-20T11:17:20.578Z,2.90
2023-01-20T11:19:56.094Z,2.38
2023-01-20T11:22:34.580Z,2.42
2023-01-20T11:25:12.529Z,2.55
2023-01-20T11:27:54.369Z,3.40
2023-01-20T11:30:26.529Z,2.83
2023-01-20T11:33:26.028Z,2.22
2023-01-20T11:36:19.081Z,2.03
2023-01-20T11:38:51.943Z,1.10
2023-01-20T11:41:41.042Z,1.10
2023-01-20T11:44:08.983Z,0.60
2023-01-20T11:52:49.580Z,1.02
2023-01-20T11:55:24.670Z,1.48
2023-01-20T11:58:01.772Z,1.08
2023-01-20T12:03:22.037Z,1.35
2023-01-20T12:06:04.153Z,1.15
2023-01-20T12:08:42.697Z,1.25
2023-01-20T12:11:11.506Z,1.10
2023-01-20T12:14:20.066Z,1.17
2023-01-20T12:17:06.661Z,0.70
2023-01-20T12:19:57.387Z,0.70
2023-01-20T12:22:41.536Z,1.38
2023-01-20T12:25:50.023Z,2.45
2023-01-20T12:28:22.502Z,1.92
2023-01-20T12:30:55.692Z,0.80
2023-01-20T12:33:38.895Z,1.30
2023-01-20T12:36:22.086Z,0.95
2023-01-20T12:39:03.266Z,1.00
2023-01-20T12:41:54.851Z,1.10
2023-01-20T12:44:59.280Z,1.75
2023-01-20T12:47:40.965Z,1.45
2023-01-20T12:50:41.914Z,1.27
2023-01-20T12:53:43.488Z,0.90
2023-01-20T12:56:19.080Z,1.00
2023-01-20T12:59:10.141Z,1.65
2023-01-20T13:01:36.887Z,1.67
2023-01-20T13:04:22.302Z,2.50
2023-01-20T13:07:23.187Z,1.95
2023-01-20T13:10:14.804Z,1.92
2023-01-20T13:12:45.416Z,1.20
2023-01-20T13:15:18.598Z,1.20
2023-01-20T13:18:26.705Z,1.05
2023-01-20T13:20:55.249Z,1.10
2023-01-20T13:23:42.944Z,0.98
2023-01-20T13:26:09.973Z,0.90
2023-01-20T13:28:36.829Z,0.60
2023-01-20T13:31:29.544Z,0.93
2023-01-20T13:34:22.491Z,1.48
2023-01-20T13:37:25.105Z,1.70
2023-01-20T13:39:59.582Z,1.58
2023-01-20T13:42:46.059Z,1.83
2023-01-20T13:48:11.193Z,3.28
2023-01-20T13:50:50.870Z,3.17
2023-01-20T13:53:43.000Z,4.18
2023-01-20T13:56:38.486Z,4.80
2023-01-20T14:01:51.359Z,4.18
2023-01-20T14:04:20.415Z,4.38
2023-01-20T14:06:49.657Z,5.35
2023-01-20T14:09:27.480Z,6.25
2023-01-20T14:12:05.366Z,5.88
2023-01-20T14:17:29.664Z,1.92
2023-01-20T14:19:56.644Z,6.40
2023-01-20T14:22:30.234Z,6.95
2023-01-20T14:24:59.247Z,7.55
2023-01-20T14:27:29.640Z,5.22
2023-01-20T14:29:58.352Z,7.15
2023-01-20T14:32:38.353Z,4.13
2023-01-20T14:35:24.936Z,3.17
2023-01-20T14:37:52.754Z,0.70
2023-01-20T14:40:33.746Z,0.60
2023-01-20T14:43:03.588Z,3.67
2023-01-20T14:45:32.979Z,1.95
2023-01-20T14:48:09.645Z,2.30
2023-01-20T14:50:41.058Z,2.58
2023-01-20T14:53:12.437Z,2.60
2023-01-20T14:55:48.318Z,5.43
2023-01-20T14:58:17.600Z,2.45
2023-01-20T15:00:50.154Z,2.50
2023-01-20T15:03:30.654Z,2.40
2023-01-20T15:06:16.840Z,2.47
2023-01-20T15:09:05.086Z,2.65
2023-01-20T15:11:33.623Z,5.22
2023-01-20T15:14:08.643Z,5.82
2023-01-20T15:16:44.913Z,4.70
2023-01-20T15:19:20.915Z,5.32
2023-01-20T15:21:50.152Z,4.70
2023-01-20T15:24:21.401Z,4.18
2023-01-20T15:26:50.476Z,4.35
2023-01-20T15:29:25.990Z,3.83
2023-01-20T15:31:56.851Z,3.88
2023-01-20T15:34:24.841Z,2.83
2023-01-20T15:36:52.928Z,2.60
2023-01-20T15:39:22.481Z,3.53
2023-01-20T15:41:56.103Z,4.88
2023-01-20T15:44:24.609Z,5.47
2023-01-20T15:46:52.460Z,2.90
2023-01-20T15:49:23.149Z,2.45
2023-01-20T15:51:49.933Z,3.50
2023-01-20T15:54:16.846Z,3.15
2023-01-20T15:56:44.205Z,3.70
2023-01-20T15:59:17.175Z,4.93
2023-01-20T16:01:47.376Z,3.00
2023-01-20T16:04:14.192Z,3.75
2023-01-20T16:06:41.246Z,3.88
2023-01-20T16:09:25.287Z,3.90
2023-01-20T16:11:53.375Z,4.03
2023-01-20T16:14:23.538Z,3.88
2023-01-20T16:16:50.589Z,4.28
2023-01-20T16:19:17.429Z,2.75
2023-01-20T16:21:45.735Z,4.70
2023-01-20T16:24:13.003Z,5.20
2023-01-20T16:26:56.705Z,4.93
2023-01-20T16:29:26.769Z,5.97
2023-01-20T16:31:53.814Z,3.10
2023-01-20T16:34:40.513Z,3.22
2023-01-20T16:37:07.661Z,2.10
2023-01-20T16:39:43.476Z,1.67
2023-01-20T16:42:15.333Z,1.70
2023-01-20T17:20:36.036Z,1.88
2023-01-20T17:29:30.513Z,3.03
2023-01-20T17:34:43.929Z,1.70
2023-01-20T17:37:24.004Z,0.80
2023-01-20T17:39:54.306Z,1.10
2023-01-20T17:42:21.368Z,1.38
2023-01-20T17:44:48.430Z,1.42
2023-01-20T17:47:15.353Z,2.97
2023-01-20T17:49:42.239Z,3.72
2023-01-20T17:52:09.042Z,3.47
2023-01-20T17:54:35.945Z,2.83
2023-01-20T17:57:05.564Z,1.17
2023-01-20T17:59:32.364Z,1.30
2023-01-20T18:01:59.341Z,1.88
2023-01-20T18:04:26.384Z,1.50
2023-01-20T18:06:55.903Z,1.42
2023-01-20T18:09:22.786Z,2.00
2023-01-20T18:11:49.520Z,3.60
2023-01-20T18:14:16.425Z,5.03
2023-01-20T18:16:43.920Z,7.93
2023-01-20T18:19:14.911Z,9.82
2023-01-20T18:21:43.864Z,10.73
2023-01-20T18:24:12.039Z,10.65
2023-01-20T18:26:40.798Z,5.43
2023-01-20T18:29:12.633Z,7.25
2023-01-20T18:31:39.621Z,7.55
2023-01-20T18:34:08.597Z,9.05
2023-01-20T18:36:42.057Z,6.68
2023-01-20T18:39:17.328Z,6.78
2023-01-20T18:41:44.641Z,7.05
2023-01-20T18:44:11.689Z,7.75
2023-01-20T18:46:38.573Z,7.90
2023-01-20T18:49:09.309Z,6.82
2023-01-20T18:51:36.759Z,7.88
2023-01-20T18:54:10.470Z,8.88
2023-01-20T18:56:37.444Z,9.05
2023-01-20T18:59:05.782Z,9.00
2023-01-20T19:01:36.000Z,8.85
2023-01-20T19:04:04.626Z,8.70
2023-01-20T19:06:34.665Z,7.85
2023-01-20T19:09:02.453Z,9.60
2023-01-20T19:11:40.901Z,10.65
2023-01-20T19:14:11.576Z,7.53
2023-01-20T19:16:45.486Z,8.38
2023-01-20T19:19:13.518Z,6.35
2023-01-20T19:21:44.093Z,7.30
2023-01-20T19:24:17.631Z,9.07
2023-01-20T19:26:44.714Z,9.38
2023-01-20T19:29:15.873Z,8.48
2023-01-20T19:31:46.779Z,8.05
2023-01-20T19:34:13.710Z,7.15
2023-01-20T19:36:41.268Z,6.28
2023-01-20T19:39:11.658Z,6.82
2023-01-20T19:41:39.710Z,5.43
2023-01-20T19:44:08.155Z,5.28
2023-01-20T19:46:39.244Z,5.20
2023-01-20T19:49:15.461Z,4.72
2023-01-20T19:51:42.495Z,4.38
2023-01-20T19:54:13.110Z,3.63
2023-01-20T19:56:40.139Z,4.25
2023-01-20T19:59:07.122Z,3.20
2023-01-20T20:01:36.893Z,3.63
2023-01-20T20:04:09.462Z,2.90
2023-01-20T20:06:40.122Z,4.13
2023-01-20T20:09:11.092Z,3.75
2023-01-20T20:11:39.169Z,6.00
2023-01-20T20:14:10.642Z,7.20
2023-01-20T20:16:39.146Z,6.72
2023-01-20T20:19:08.750Z,7.57
2023-01-20T20:21:35.894Z,7.28
2023-01-20T20:24:05.530Z,10.10
2023-01-20T20:26:36.865Z,6.82
2023-01-20T20:29:06.187Z,4.20
2023-01-20T20:31:38.156Z,3.83
2023-01-20T20:34:07.644Z,3.00
2023-01-20T20:36:35.690Z,3.00
2023-01-20T20:39:08.076Z,2.67
2023-01-20T20:41:36.877Z,2.30
2023-01-20T20:44:09.664Z,2.58
2023-01-20T20:46:36.765Z,3.22
2023-01-20T20:49:04.165Z,2.17
2023-01-20T20:51:34.504Z,1.67
2023-01-20T20:54:03.174Z,1.80
2023-01-20T20:56:34.107Z,1.77
2023-01-20T20:59:03.745Z,2.22
2023-01-20T21:01:33.723Z,2.13
2023-01-20T21:04:02.002Z,1.70
2023-01-20T21:06:30.319Z,1.80
2023-01-20T21:08:58.867Z,1.40
2023-01-20T21:11:26.333Z,1.58
2023-01-20T21:13:53.912Z,1.60
2023-01-20T21:16:23.268Z,1.25
2023-01-20T21:18:52.486Z,1.60
2023-01-20T21:21:20.308Z,1.20
2023-01-20T21:23:52.361Z,0.93
2023-01-20T21:26:19.745Z,0.90
2023-01-20T21:28:49.448Z,0.90
2023-01-20T21:31:22.904Z,1.50
2023-01-20T21:33:57.612Z,1.52
2023-01-20T21:36:25.541Z,1.50
2023-01-20T21:38:52.640Z,1.40
2023-01-20T21:41:20.400Z,1.35
2023-01-20T21:44:08.288Z,1.45
2023-01-20T21:46:40.593Z,1.42
2023-01-20T21:49:27.255Z,4.05
2023-01-20T21:52:15.601Z,8.13
2023-01-20T21:54:45.626Z,9.43
2023-01-20T21:57:13.569Z,7.07
2023-01-20T21:59:40.855Z,7.68
2023-01-20T22:02:08.907Z,8.70
2023-01-20T22:04:36.647Z,7.13
2023-01-20T22:07:12.943Z,6.32
2023-01-20T22:09:40.454Z,5.18
2023-01-20T22:12:10.621Z,6.63
2023-01-20T22:14:57.191Z,7.32
2023-01-20T22:18:23.684Z,8.35
2023-01-20T22:20:52.680Z,9.80
2023-01-20T22:23:22.360Z,10.60
2023-01-20T22:25:53.593Z,9.35
2023-01-20T22:28:24.555Z,9.00
2023-01-20T22:35:11.464Z,9.82
2023-01-20T22:54:01.939Z,2.47
2023-01-20T22:56:32.485Z,3.67
2023-01-20T22:59:08.323Z,7.00
2023-01-20T23:01:39.525Z,4.93
2023-01-20T23:04:07.739Z,3.83
2023-01-20T23:06:36.809Z,3.85
2023-01-20T23:09:10.586Z,2.45
2023-01-20T23:11:44.357Z,1.98
2023-01-20T23:14:17.996Z,2.33
2023-01-20T23:17:03.747Z,2.22
2023-01-20T23:22:40.294Z,0.90
2023-01-20T23:25:08.941Z,0.60
2023-01-20T23:27:41.133Z,0.70
2023-01-20T23:30:15.230Z,0.95
2023-01-20T23:32:50.290Z,0.82
2023-01-20T23:35:18.167Z,1.10
2023-01-20T23:37:46.271Z,1.10
2023-01-20T23:40:14.362Z,1.00
2023-01-20T23:43:13.935Z,0.90
2023-01-20T23:45:47.583Z,0.80
2023-01-20T23:48:18.387Z,0.90
2023-01-20T23:50:51.792Z,0.80
2023-01-20T23:53:19.427Z,0.70
2023-01-20T23:55:46.709Z,1.13
2023-01-20T23:58:13.695Z,1.40
